createdAt,value
2023-09-01T00:00:42.846Z,14.10
2023-09-01T00:03:28.919Z,14.10
2023-09-01T00:05:59.494Z,14.10
2023-09-01T00:08:27.192Z,14.10
2023-09-01T00:10:54.867Z,14.10
2023-09-01T00:13:22.470Z,14.10
2023-09-01T00:15:50.048Z,14.00
2023-09-01T00:18:17.631Z,14.00
2023-09-01T00:23:13.105Z,14.00
2023-09-01T00:25:40.756Z,14.00
2023-09-01T00:28:08.362Z,14.00
2023-09-01T00:30:55.469Z,14.00
2023-09-01T00:33:26.133Z,14.00
2023-09-01T00:35:55.331Z,14.00
2023-09-01T00:38:25.886Z,14.00
2023-09-01T00:40:53.793Z,14.00
2023-09-01T00:43:21.523Z,14.10
2023-09-01T00:48:17.585Z,14.10
2023-09-01T00:50:49.439Z,14.10
2023-09-01T00:53:18.764Z,14.20
2023-09-01T00:55:46.431Z,14.10
2023-09-01T00:58:14.552Z,14.10
2023-09-01T01:00:43.928Z,14.20
2023-09-01T01:03:12.790Z,14.20
2023-09-01T01:05:59.042Z,14.20
2023-09-01T01:08:38.892Z,14.10
2023-09-01T01:11:15.643Z,14.20
2023-09-01T01:13:48.036Z,14.20
2023-09-01T01:16:17.523Z,14.20
2023-09-01T01:18:48.451Z,14.20
2023-09-01T01:21:22.926Z,14.20
2023-09-01T01:23:53.311Z,14.20
2023-09-01T01:26:22.813Z,14.20
2023-09-01T01:28:50.397Z,14.30
2023-09-01T01:31:19.446Z,14.30
2023-09-01T01:34:10.687Z,14.20
2023-09-01T01:36:50.321Z,14.30
2023-09-01T01:39:24.920Z,14.20
2023-09-01T01:41:57.736Z,14.20
2023-09-01T01:44:34.074Z,14.30
2023-09-01T01:47:02.016Z,14.20
2023-09-01T01:51:58.897Z,14.30
2023-09-01T01:54:28.388Z,14.30
2023-09-01T01:56:57.172Z,14.20
2023-09-01T01:59:24.941Z,14.20
2023-09-01T02:04:20.852Z,14.20
2023-09-01T02:06:48.424Z,14.20
2023-09-01T02:09:16.204Z,14.20
2023-09-01T02:11:43.759Z,14.20
2023-09-01T02:14:11.964Z,14.10
2023-09-01T02:16:40.498Z,14.20
2023-09-01T02:19:13.259Z,14.10
2023-09-01T02:21:41.020Z,14.10
2023-09-01T02:24:08.675Z,14.10
2023-09-01T02:26:36.346Z,14.00
2023-09-01T02:29:06.600Z,13.90
2023-09-01T02:31:36.385Z,13.90
2023-09-01T02:34:06.075Z,13.90
2023-09-01T02:36:35.324Z,13.80
2023-09-01T02:39:07.914Z,13.80
2023-09-01T02:41:35.738Z,13.80
2023-09-01T02:44:03.503Z,13.70
2023-09-01T02:46:31.540Z,13.60
2023-09-01T02:48:59.167Z,13.60
2023-09-01T02:51:26.869Z,13.50
2023-09-01T02:53:54.487Z,13.50
2023-09-01T02:56:22.048Z,13.30
2023-09-01T02:58:50.106Z,13.30
2023-09-01T03:01:19.704Z,13.20
2023-09-01T03:03:47.751Z,13.10
2023-09-01T03:06:15.606Z,12.90
2023-09-01T03:08:43.527Z,12.80
2023-09-01T03:11:11.738Z,12.70
2023-09-01T03:13:39.519Z,12.70
2023-09-01T03:16:08.173Z,12.60
2023-09-01T03:18:35.908Z,12.50
2023-09-01T03:21:13.549Z,12.40
2023-09-01T03:23:42.755Z,12.30
2023-09-01T03:26:11.314Z,12.20
2023-09-01T03:28:41.496Z,12.20
2023-09-01T03:31:11.106Z,12.10
2023-09-01T03:33:41.477Z,12.00
2023-09-01T03:36:09.690Z,12.00
2023-09-01T03:38:38.104Z,11.90
2023-09-01T03:41:06.387Z,11.90
2023-09-01T03:43:34.962Z,11.80
2023-09-01T03:46:03.748Z,11.70
2023-09-01T03:48:31.361Z,11.70
2023-09-01T03:51:15.932Z,11.70
2023-09-01T03:53:44.296Z,11.60
2023-09-01T03:56:17.528Z,11.60
2023-09-01T03:58:45.589Z,11.60
2023-09-01T04:01:14.236Z,11.60
2023-09-01T04:03:44.247Z,11.70
2023-09-01T04:06:12.685Z,11.70
2023-09-01T04:08:41.146Z,11.70
2023-09-01T04:11:08.853Z,11.80
2023-09-01T04:13:37.031Z,11.80
2023-09-01T04:16:05.287Z,11.90
2023-09-01T04:21:01.903Z,12.00
2023-09-01T04:23:29.735Z,12.10
2023-09-01T04:25:58.902Z,12.20
2023-09-01T04:28:29.751Z,12.20
2023-09-01T04:31:01.530Z,12.30
2023-09-01T04:33:31.156Z,12.40
2023-09-01T04:36:01.329Z,12.40
2023-09-01T04:40:58.579Z,12.50
2023-09-01T04:43:28.081Z,12.50
2023-09-01T04:45:56.911Z,12.60
2023-09-01T04:50:54.332Z,12.60
2023-09-01T04:53:22.296Z,12.70
2023-09-01T04:55:52.163Z,12.60
2023-09-01T04:58:19.629Z,12.70
2023-09-01T05:00:47.468Z,12.70
2023-09-01T05:03:15.302Z,12.70
2023-09-01T05:08:10.972Z,12.80
2023-09-01T05:10:38.504Z,12.90
2023-09-01T05:13:06.157Z,12.90
2023-09-01T05:15:33.941Z,12.90
2023-09-01T05:18:04.179Z,12.90
2023-09-01T05:20:31.826Z,12.90
2023-09-01T05:22:59.790Z,12.90
2023-09-01T05:25:27.697Z,12.90
2023-09-01T05:27:56.409Z,12.90
2023-09-01T05:30:24.037Z,12.90
2023-09-01T05:32:52.201Z,13.00
2023-09-01T05:35:20.070Z,12.90
2023-09-01T05:37:47.808Z,12.90
2023-09-01T05:40:15.461Z,12.90
2023-09-01T05:42:43.842Z,12.90
2023-09-01T05:45:11.502Z,12.90
2023-09-01T05:47:39.225Z,13.00
2023-09-01T05:50:07.655Z,13.00
2023-09-01T05:52:35.297Z,13.00
2023-09-01T05:55:03.016Z,13.00
2023-09-01T05:57:30.584Z,13.00
2023-09-01T06:04:55.354Z,13.10
2023-09-01T06:07:22.997Z,13.10
2023-09-01T06:09:50.759Z,13.10
2023-09-01T06:12:18.334Z,13.10
2023-09-01T06:17:13.954Z,13.20
2023-09-01T06:19:41.701Z,13.20
2023-09-01T06:22:09.238Z,13.20
2023-09-01T06:24:36.825Z,13.30
2023-09-01T06:27:04.585Z,13.30
2023-09-01T06:29:32.226Z,13.30
2023-09-01T06:31:59.744Z,13.30
2023-09-01T06:34:27.302Z,13.40
2023-09-01T06:39:22.781Z,13.40
2023-09-01T06:41:50.852Z,13.50
2023-09-01T06:44:18.489Z,13.50
2023-09-01T06:46:46.080Z,13.50
2023-09-01T06:49:13.799Z,13.50
2023-09-01T06:51:43.711Z,13.50
2023-09-01T06:54:11.607Z,13.50
2023-09-01T06:56:39.137Z,13.60
2023-09-01T06:59:06.733Z,13.60
2023-09-01T07:01:34.629Z,13.70
2023-09-01T07:04:04.427Z,13.70
2023-09-01T07:06:32.061Z,13.70
2023-09-01T07:08:59.591Z,13.80
2023-09-01T07:18:52.533Z,13.90
2023-09-01T07:23:50.097Z,14.00
2023-09-01T07:26:18.258Z,14.10
2023-09-01T07:28:46.171Z,14.10
2023-09-01T07:31:14.500Z,14.20
2023-09-01T07:33:45.292Z,14.30
2023-09-01T07:36:13.246Z,14.40
2023-09-01T07:38:41.448Z,14.40
2023-09-01T07:41:09.345Z,14.50
2023-09-01T07:43:37.141Z,14.60
2023-09-01T07:46:04.907Z,14.80
2023-09-01T07:53:28.324Z,15.40
2023-09-01T07:55:57.032Z,15.60
2023-09-01T07:58:24.570Z,15.60
2023-09-01T08:00:53.162Z,15.80
2023-09-01T08:03:20.862Z,16.00
2023-09-01T08:05:48.820Z,16.00
2023-09-01T08:08:16.519Z,16.20
2023-09-01T08:10:44.482Z,16.40
2023-09-01T08:13:12.011Z,16.50
2023-09-01T08:15:39.556Z,16.60
2023-09-01T08:18:07.341Z,16.70
2023-09-01T08:20:35.057Z,16.90
2023-09-01T08:23:02.618Z,17.00
2023-09-01T08:25:30.847Z,17.10
2023-09-01T08:27:58.462Z,17.20
2023-09-01T08:30:27.911Z,17.20
2023-09-01T08:32:55.692Z,17.30
2023-09-01T08:35:23.382Z,17.40
2023-09-01T08:37:51.003Z,17.40
2023-09-01T08:40:20.448Z,17.50
2023-09-01T08:42:50.799Z,17.60
2023-09-01T08:45:20.488Z,17.70
2023-09-01T08:47:49.114Z,17.80
2023-09-01T08:50:18.386Z,18.00
2023-09-01T08:52:47.470Z,18.00
2023-09-01T08:55:16.726Z,18.20
2023-09-01T08:57:45.280Z,18.30
2023-09-01T09:00:13.265Z,18.30
2023-09-01T09:02:56.734Z,18.30
2023-09-01T09:05:34.981Z,18.40
2023-09-01T09:08:06.197Z,18.60
2023-09-01T09:10:42.555Z,19.00
2023-09-01T09:15:37.801Z,20.70
2023-09-01T10:31:19.199Z,27.60
2023-09-01T10:33:47.178Z,26.90
2023-09-01T18:54:47.461Z,18.40
2023-09-01T19:07:42.633Z,18.40
2023-09-01T19:10:21.778Z,18.10
2023-09-01T19:12:51.298Z,18.00
2023-09-01T19:15:20.881Z,17.90
2023-09-01T19:17:49.178Z,17.90
2023-09-01T19:20:24.168Z,17.80
2023-09-01T19:22:53.560Z,17.70
2023-09-01T19:25:22.480Z,17.60
2023-09-01T19:28:05.336Z,17.40
2023-09-01T19:30:35.814Z,17.40
2023-09-01T19:33:03.881Z,17.30
2023-09-01T19:35:31.976Z,17.20
2023-09-01T19:38:00.059Z,16.90
2023-09-01T19:40:27.711Z,16.90
2023-09-01T19:43:07.253Z,16.80
2023-09-01T19:45:36.636Z,16.70
2023-09-01T19:48:05.161Z,16.60
2023-09-01T19:50:35.054Z,16.60
2023-09-01T19:53:10.573Z,16.50
2023-09-01T19:55:40.841Z,16.50
2023-09-01T19:58:08.549Z,16.40
2023-09-01T20:00:40.394Z,16.40
2023-09-01T20:03:12.833Z,16.50
2023-09-01T20:05:41.798Z,16.30
2023-09-01T20:08:10.634Z,16.30
2023-09-01T20:10:39.340Z,16.30
2023-09-01T20:13:08.589Z,16.20
2023-09-01T20:15:43.542Z,16.10
2023-09-01T20:18:16.856Z,16.10
2023-09-01T20:20:46.203Z,16.00
2023-09-01T20:23:14.386Z,16.00
2023-09-01T20:25:43.849Z,15.90
2023-09-01T20:28:13.704Z,15.90
2023-09-01T20:30:41.307Z,15.70
2023-09-01T20:33:09.003Z,15.70
2023-09-01T20:35:36.574Z,15.70
2023-09-01T20:38:04.371Z,15.60
2023-09-01T20:40:31.957Z,15.60
2023-09-01T20:42:59.620Z,15.50
2023-09-01T20:45:27.217Z,15.40
2023-09-01T20:47:54.825Z,15.40
2023-09-01T20:50:22.463Z,15.30
2023-09-01T20:52:50.416Z,15.20
2023-09-01T20:55:17.990Z,15.20
2023-09-01T20:57:47.593Z,15.10
2023-09-01T21:00:20.683Z,15.00
2023-09-01T21:02:49.458Z,14.90
2023-09-01T21:05:20.744Z,14.90
2023-09-01T21:07:50.075Z,14.90
2023-09-01T21:10:18.502Z,14.90
2023-09-01T21:12:46.437Z,14.80
2023-09-01T21:15:14.067Z,14.80
2023-09-01T21:17:41.880Z,14.80
2023-09-01T21:20:09.821Z,14.70
2023-09-01T21:22:37.434Z,14.70
2023-09-01T21:25:05.337Z,14.70
2023-09-01T21:27:33.049Z,14.60
2023-09-01T21:30:21.099Z,14.50
2023-09-01T21:32:48.811Z,14.60
2023-09-01T21:35:16.522Z,14.50
2023-09-01T21:37:44.064Z,14.50
2023-09-01T21:40:11.977Z,14.50
2023-09-01T21:42:40.276Z,14.40
2023-09-01T21:45:08.572Z,14.40
2023-09-01T21:47:36.388Z,14.40
2023-09-01T21:50:05.044Z,14.30
2023-09-01T21:52:33.295Z,14.30
2023-09-01T21:55:00.923Z,14.20
2023-09-01T21:57:30.888Z,14.20
2023-09-01T21:59:58.668Z,14.20
2023-09-01T22:02:26.364Z,14.30
2023-09-01T22:04:53.974Z,14.10
2023-09-01T22:07:21.576Z,14.10
2023-09-01T22:09:49.499Z,14.10
2023-09-01T22:12:20.097Z,14.00
2023-09-01T22:14:49.055Z,14.00
2023-09-01T22:17:18.044Z,14.00
2023-09-01T22:19:48.655Z,14.00
2023-09-01T22:22:17.440Z,13.90
2023-09-01T22:24:45.045Z,13.90
2023-09-01T22:27:12.710Z,13.90
2023-09-01T22:29:40.758Z,13.80
2023-09-01T22:32:11.459Z,13.80
2023-09-01T22:34:39.369Z,13.80
2023-09-01T22:37:07.028Z,13.80
2023-09-01T22:39:34.602Z,13.80
2023-09-01T22:42:02.272Z,13.60
2023-09-01T22:44:30.165Z,13.70
2023-09-01T22:46:58.186Z,13.60
2023-09-01T22:49:25.908Z,13.60
2023-09-01T22:51:53.611Z,13.60
2023-09-01T22:54:21.253Z,13.60
2023-09-01T22:56:49.073Z,13.60
2023-09-01T22:59:16.687Z,13.60
2023-09-01T23:01:44.510Z,13.60
2023-09-01T23:04:12.629Z,13.50
2023-09-01T23:06:40.340Z,13.50
2023-09-01T23:09:07.897Z,13.50
2023-09-01T23:11:35.495Z,13.50
2023-09-01T23:14:03.837Z,13.50
2023-09-01T23:16:33.456Z,13.50
2023-09-01T23:19:01.343Z,13.50
2023-09-01T23:21:29.688Z,13.50
2023-09-01T23:23:57.703Z,13.40
2023-09-01T23:26:26.237Z,13.40
2023-09-01T23:28:54.689Z,13.60
2023-09-01T23:31:22.300Z,13.40
2023-09-01T23:33:49.961Z,13.40
2023-09-01T23:36:17.604Z,13.40
2023-09-01T23:38:45.305Z,13.30
2023-09-01T23:41:12.866Z,13.30
2023-09-01T23:43:40.483Z,13.20
2023-09-01T23:46:08.293Z,13.20
2023-09-01T23:48:35.930Z,13.20
2023-09-01T23:51:03.803Z,13.20
2023-09-01T23:53:31.534Z,13.20
2023-09-01T23:56:00.886Z,13.20
